createdAt,value
2023-01-18T00:00:52.573Z,98030.90
2023-01-18T00:03:25.058Z,98034.54
2023-01-18T00:05:54.504Z,98032.25
2023-01-18T00:08:21.740Z,98030.84
2023-01-18T00:10:48.891Z,98028.70
2023-01-18T00:13:16.096Z,98024.73
2023-01-18T00:15:43.269Z,98021.36
2023-01-18T00:18:10.422Z,98018.03
2023-01-18T00:20:37.576Z,98017.90
2023-01-18T00:23:04.720Z,98020.21
2023-01-18T00:25:31.795Z,98024.04
2023-01-18T00:27:59.022Z,98028.52
2023-01-18T00:30:28.147Z,98027.59
2023-01-18T00:32:57.604Z,98031.73
2023-01-18T00:35:25.822Z,98040.80
2023-01-18T00:37:54.065Z,98047.77
2023-01-18T00:40:24.426Z,98048.89
2023-01-18T00:43:10.555Z,98048.62
2023-01-18T00:45:37.780Z,98055.73
2023-01-18T00:48:05.384Z,98058.30
2023-01-18T00:50:32.564Z,98062.27
2023-01-18T00:53:00.462Z,98049.34
2023-01-18T00:55:28.275Z,98037.77
2023-01-18T00:57:55.445Z,98030.21
2023-01-18T01:00:23.852Z,98030.19
2023-01-18T01:02:51.866Z,98032.77
2023-01-18T01:05:42.817Z,98032.48
2023-01-18T01:08:17.128Z,98038.01
2023-01-18T01:10:47.038Z,98040.57
2023-01-18T01:13:34.936Z,98037.90
2023-01-18T01:16:28.594Z,98035.30
2023-01-18T01:19:15.002Z,98028.70
2023-01-18T01:22:01.186Z,98023.17
2023-01-18T01:24:47.018Z,98023.09
2023-01-18T01:27:14.398Z,98019.39
2023-01-18T01:29:41.521Z,98017.52
2023-01-18T01:32:09.487Z,98015.86
2023-01-18T01:34:37.314Z,98013.70
2023-01-18T01:37:04.802Z,98013.63
2023-01-18T01:39:32.094Z,98014.17
2023-01-18T01:41:59.275Z,98009.55
2023-01-18T01:44:29.917Z,98011.69
2023-01-18T01:47:03.025Z,98008.42
2023-01-18T01:49:35.052Z,98011.27
2023-01-18T01:52:08.552Z,98012.90
2023-01-18T01:54:58.521Z,98012.71
2023-01-18T01:57:30.470Z,98013.59
2023-01-18T02:00:01.544Z,98013.35
2023-01-18T02:02:40.938Z,98014.58
2023-01-18T02:05:12.436Z,98008.50
2023-01-18T02:07:39.877Z,98016.36
2023-01-18T02:10:07.824Z,98019.30
2023-01-18T02:12:36.218Z,98015.77
2023-01-18T02:15:04.366Z,98006.68
2023-01-18T02:18:10.523Z,98002.80
2023-01-18T02:21:16.823Z,97993.27
2023-01-18T02:24:06.071Z,97991.91
2023-01-18T02:27:04.994Z,97989.31
2023-01-18T02:29:34.990Z,97991.55
2023-01-18T02:32:44.628Z,97991.48
2023-01-18T02:35:20.510Z,97990.41
2023-01-18T02:38:04.095Z,97989.66
2023-01-18T02:40:34.356Z,97986.39
2023-01-18T02:43:25.535Z,97984.59
2023-01-18T02:46:11.600Z,97985.64
2023-01-18T02:48:40.546Z,97980.09
2023-01-18T02:51:08.261Z,97980.82
2023-01-18T02:53:41.453Z,97983.49
2023-01-18T02:56:14.173Z,97982.40
2023-01-18T02:58:53.948Z,97984.83
2023-01-18T03:01:28.801Z,97984.02
2023-01-18T03:04:00.832Z,97982.26
2023-01-18T03:06:29.769Z,97982.20
2023-01-18T03:08:59.928Z,97982.34
2023-01-18T03:11:33.568Z,97986.56
2023-01-18T03:14:27.731Z,97990.77
2023-01-18T03:17:08.392Z,97989.79
2023-01-18T03:20:03.983Z,97991.99
2023-01-18T03:22:54.998Z,97988.84
2023-01-18T03:25:33.447Z,97989.65
2023-01-18T03:28:25.116Z,97987.37
2023-01-18T03:31:14.643Z,97981.70
2023-01-18T03:33:48.339Z,97971.83
2023-01-18T03:36:35.743Z,97970.86
2023-01-18T03:39:07.270Z,97971.33
2023-01-18T03:41:40.204Z,97968.14
2023-01-18T03:44:12.886Z,97971.93
2023-01-18T03:46:41.366Z,97975.08
2023-01-18T03:49:08.670Z,97974.52
2023-01-18T03:51:54.656Z,97980.05
2023-01-18T03:54:56.043Z,97981.60
2023-01-18T03:57:45.796Z,97987.91
2023-01-18T04:00:14.894Z,97988.43
2023-01-18T04:02:45.210Z,97989.23
2023-01-18T04:05:13.224Z,97980.00
2023-01-18T04:07:40.422Z,97978.73
2023-01-18T04:10:08.259Z,97975.83
2023-01-18T04:12:35.522Z,97971.21
2023-01-18T04:15:03.787Z,97968.86
2023-01-18T04:17:31.532Z,97965.83
2023-01-18T04:19:58.790Z,97969.02
2023-01-18T04:22:26.110Z,97967.15
2023-01-18T04:24:53.260Z,97969.48
2023-01-18T04:27:20.650Z,97974.73
2023-01-18T04:29:48.458Z,97978.19
2023-01-18T04:32:15.684Z,97980.27
2023-01-18T04:34:42.962Z,97979.03
2023-01-18T04:37:10.214Z,97977.77
2023-01-18T04:39:37.289Z,97976.71
2023-01-18T04:42:04.769Z,97973.77
2023-01-18T04:44:31.973Z,97972.14
2023-01-18T04:46:59.135Z,97972.98
2023-01-18T04:49:27.901Z,97971.56
2023-01-18T04:51:55.168Z,97968.17
2023-01-18T04:54:22.323Z,97958.13
2023-01-18T04:56:49.520Z,97952.26
2023-01-18T04:59:16.945Z,97949.33
2023-01-18T05:01:44.382Z,97950.64
2023-01-18T05:04:11.560Z,97948.36
2023-01-18T05:06:38.769Z,97945.90
2023-01-18T05:09:05.989Z,97936.41
2023-01-18T05:11:33.293Z,97941.83
2023-01-18T05:14:00.480Z,97941.72
2023-01-18T05:16:28.258Z,97940.69
2023-01-18T05:18:55.721Z,97941.98
2023-01-18T05:21:22.951Z,97944.83
2023-01-18T05:23:50.061Z,97943.66
2023-01-18T05:26:19.967Z,97943.34
2023-01-18T05:28:48.139Z,97947.33
2023-01-18T05:31:16.500Z,97945.66
2023-01-18T05:33:43.665Z,97946.16
2023-01-18T05:36:10.892Z,97942.41
2023-01-18T05:38:38.095Z,97935.73
2023-01-18T05:41:05.396Z,97928.73
2023-01-18T05:43:33.809Z,97927.20
2023-01-18T05:46:01.852Z,97925.00
2023-01-18T05:48:29.209Z,97927.60
2023-01-18T05:50:56.484Z,97922.70
2023-01-18T05:53:23.865Z,97925.02
2023-01-18T05:55:59.063Z,97924.67
2023-01-18T05:58:27.531Z,97918.11
2023-01-18T06:00:55.238Z,97908.67
2023-01-18T06:03:23.794Z,97904.08
2023-01-18T06:05:54.350Z,97898.54
2023-01-18T06:08:21.999Z,97893.77
2023-01-18T06:10:57.349Z,97892.79
2023-01-18T06:13:28.108Z,97888.64
2023-01-18T06:15:56.926Z,97886.27
2023-01-18T06:18:26.640Z,97883.86
2023-01-18T06:20:55.313Z,97883.64
2023-01-18T06:23:22.568Z,97881.61
2023-01-18T06:25:49.899Z,97882.77
2023-01-18T06:28:17.316Z,97876.13
2023-01-18T06:30:44.534Z,97873.73
2023-01-18T06:33:11.733Z,97872.27
2023-01-18T06:35:38.858Z,97866.40
2023-01-18T06:38:06.039Z,97858.44
2023-01-18T06:40:33.621Z,97855.16
2023-01-18T06:43:01.168Z,97852.60
2023-01-18T06:45:29.536Z,97853.44
2023-01-18T06:47:57.354Z,97854.48
2023-01-18T06:50:24.681Z,97859.19
2023-01-18T06:52:52.256Z,97863.35
2023-01-18T06:55:22.644Z,97861.63
2023-01-18T06:57:49.844Z,97864.87
2023-01-18T07:00:17.493Z,97879.19
2023-01-18T07:02:44.763Z,97896.23
2023-01-18T07:05:12.012Z,97908.79
2023-01-18T07:07:39.123Z,97901.67
2023-01-18T07:10:06.896Z,97905.27
2023-01-18T07:12:34.209Z,97921.46
2023-01-18T07:15:09.896Z,97922.50
2023-01-18T07:17:47.301Z,97914.69
2023-01-18T07:20:16.013Z,97914.34
2023-01-18T07:22:43.137Z,97911.18
2023-01-18T07:25:13.575Z,97906.23
2023-01-18T07:27:43.648Z,97900.32
2023-01-18T07:30:14.868Z,97893.20
2023-01-18T07:32:48.838Z,97893.14
2023-01-18T07:35:18.453Z,97893.92
2023-01-18T07:37:53.399Z,97898.47
2023-01-18T07:40:21.704Z,97899.54
2023-01-18T07:42:50.089Z,97901.61
2023-01-18T07:45:18.006Z,97904.96
2023-01-18T07:47:46.436Z,97913.83
2023-01-18T07:50:14.514Z,97917.04
2023-01-18T07:52:41.687Z,97920.40
2023-01-18T07:55:09.351Z,97925.39
2023-01-18T07:57:36.549Z,97930.36
2023-01-18T08:00:07.243Z,97926.67
2023-01-18T08:02:40.975Z,97928.48
2023-01-18T08:05:10.688Z,97930.80
2023-01-18T08:07:37.954Z,97937.73
2023-01-18T08:10:05.818Z,97939.29
2023-01-18T08:12:33.095Z,97930.42
2023-01-18T08:15:00.918Z,97923.65
2023-01-18T08:17:29.864Z,97931.05
2023-01-18T08:19:57.134Z,97932.40
2023-01-18T08:22:24.323Z,97928.86
2023-01-18T08:24:51.598Z,97931.52
2023-01-18T08:27:19.714Z,97940.83
2023-01-18T08:29:48.284Z,97942.14
2023-01-18T08:32:15.581Z,97936.60
2023-01-18T08:34:42.931Z,97942.20
2023-01-18T08:37:11.911Z,97944.23
2023-01-18T08:39:39.184Z,97937.70
2023-01-18T08:42:06.380Z,97938.45
2023-01-18T08:44:33.557Z,97938.34
2023-01-18T08:47:00.681Z,97933.30
2023-01-18T08:49:27.937Z,97935.58
2023-01-18T08:51:55.239Z,97941.45
2023-01-18T08:54:22.389Z,97942.58
2023-01-18T08:56:49.590Z,97937.66
2023-01-18T08:59:17.021Z,97934.56
2023-01-18T09:01:44.233Z,97935.05
2023-01-18T09:04:11.921Z,97932.71
2023-01-18T09:06:39.167Z,97927.14
2023-01-18T09:09:06.346Z,97924.96
2023-01-18T09:11:33.568Z,97921.27
2023-01-18T09:14:02.282Z,97911.72
2023-01-18T09:16:30.649Z,97904.20
2023-01-18T09:18:58.625Z,97901.41
2023-01-18T09:21:28.215Z,97897.15
2023-01-18T09:23:55.352Z,97892.65
2023-01-18T09:26:22.647Z,97888.17
2023-01-18T09:28:54.810Z,97888.91
2023-01-18T09:31:25.089Z,97889.38
2023-01-18T09:33:53.953Z,97885.61
2023-01-18T09:36:26.552Z,97880.02
2023-01-18T09:38:55.922Z,97874.69
2023-01-18T09:41:36.493Z,97874.04
2023-01-18T09:44:18.091Z,97864.86
2023-01-18T09:46:45.810Z,97852.00
2023-01-18T09:49:22.458Z,97840.42
2023-01-18T09:51:54.926Z,97832.13
2023-01-18T09:54:24.916Z,97819.20
2023-01-18T09:57:15.925Z,97811.80
2023-01-18T09:59:54.031Z,97807.59
2023-01-18T10:02:25.843Z,97800.11
2023-01-18T10:04:59.164Z,97799.19
2023-01-18T10:07:29.541Z,97802.98
2023-01-18T10:10:03.396Z,97807.24
2023-01-18T10:12:43.793Z,97804.67
2023-01-18T10:15:34.489Z,97806.70
2023-01-18T10:18:02.028Z,97806.15
2023-01-18T10:20:41.282Z,97794.70
2023-01-18T10:23:11.578Z,97785.71
2023-01-18T10:25:44.733Z,97775.56
2023-01-18T10:28:26.320Z,97778.28
2023-01-18T10:30:56.714Z,97775.23
2023-01-18T10:33:27.701Z,97781.85
2023-01-18T10:36:00.362Z,97778.04
2023-01-18T10:38:30.315Z,97776.78
2023-01-18T10:41:02.111Z,97777.12
2023-01-18T10:43:32.002Z,97779.45
2023-01-18T10:45:59.352Z,97777.42
2023-01-18T10:48:29.050Z,97779.52
2023-01-18T10:50:59.653Z,97783.82
2023-01-18T10:53:38.646Z,97786.29
2023-01-18T10:56:17.601Z,97795.02
2023-01-18T10:58:50.922Z,97802.08
2023-01-18T11:01:22.769Z,97799.86
2023-01-18T11:03:55.540Z,97801.34
2023-01-18T11:06:24.556Z,97808.52
2023-01-18T11:08:52.707Z,97806.89
2023-01-18T11:11:50.531Z,97807.08
2023-01-18T11:14:28.559Z,97809.89
2023-01-18T11:17:04.026Z,97803.06
2023-01-18T11:19:31.296Z,97794.58
2023-01-18T11:21:58.438Z,97791.17
2023-01-18T11:24:31.220Z,97790.19
2023-01-18T11:27:04.135Z,97784.49
2023-01-18T11:29:43.126Z,97780.21
2023-01-18T11:32:28.791Z,97776.48
2023-01-18T11:35:02.644Z,97769.48
2023-01-18T11:37:34.518Z,97768.33
2023-01-18T11:40:32.428Z,97764.74
2023-01-18T11:43:18.063Z,97765.15
2023-01-18T11:45:53.619Z,97758.14
2023-01-18T11:48:35.976Z,97750.77
2023-01-18T11:51:10.841Z,97744.69
2023-01-18T11:53:41.691Z,97749.09
2023-01-18T11:56:12.323Z,97746.48
2023-01-18T11:58:40.624Z,97744.61
2023-01-18T12:01:10.981Z,97747.02
2023-01-18T12:03:44.015Z,97745.59
2023-01-18T12:06:27.343Z,97740.65
2023-01-18T12:09:18.837Z,97736.70
2023-01-18T12:11:57.992Z,97729.42
2023-01-18T12:15:05.183Z,97724.08
2023-01-18T12:17:38.226Z,97725.36
2023-01-18T12:20:19.300Z,97716.87
2023-01-18T12:22:46.412Z,97719.66
2023-01-18T12:25:47.571Z,97714.21
2023-01-18T12:28:28.735Z,97716.25
2023-01-18T12:31:26.394Z,97710.63
2023-01-18T12:34:05.922Z,97705.86
2023-01-18T12:36:46.763Z,97701.70
2023-01-18T12:39:31.340Z,97703.40
2023-01-18T12:42:07.707Z,97707.48
2023-01-18T12:44:37.554Z,97714.33
2023-01-18T12:47:35.244Z,97715.83
2023-01-18T12:50:08.787Z,97722.40
2023-01-18T12:52:45.774Z,97729.58
2023-01-18T12:55:21.319Z,97735.79
2023-01-18T12:57:54.123Z,97736.34
2023-01-18T13:00:37.709Z,97734.33
2023-01-18T13:03:10.722Z,97733.05
2023-01-18T13:05:52.592Z,97732.60
2023-01-18T13:08:45.756Z,97729.11
2023-01-18T13:11:32.028Z,97733.27
2023-01-18T13:14:09.560Z,97738.50
2023-01-18T13:17:00.773Z,97743.00
2023-01-18T13:19:36.492Z,97744.55
2023-01-18T13:22:26.656Z,97749.02
2023-01-18T13:25:03.108Z,97752.64
2023-01-18T13:27:31.466Z,97759.69
2023-01-18T13:30:09.443Z,97763.23
2023-01-18T13:32:38.276Z,97770.58
2023-01-18T13:35:22.266Z,97777.02
2023-01-18T13:37:56.396Z,97784.26
2023-01-18T13:40:42.222Z,97788.27
2023-01-18T13:43:32.952Z,97793.05
2023-01-18T13:46:02.781Z,97799.05
2023-01-18T13:48:51.117Z,97802.80
2023-01-18T13:51:30.448Z,97808.98
2023-01-18T13:53:57.777Z,97814.05
2023-01-18T13:56:33.360Z,97820.38
2023-01-18T13:59:02.059Z,97821.09
2023-01-18T14:01:34.576Z,97825.36
2023-01-18T14:04:23.115Z,97827.87
2023-01-18T14:06:51.772Z,97826.44
2023-01-18T14:09:31.556Z,97828.80
2023-01-18T14:11:59.412Z,97833.17
2023-01-18T14:14:31.015Z,97830.38
2023-01-18T14:17:17.243Z,97829.04
2023-01-18T14:19:47.923Z,97833.12
2023-01-18T14:22:33.574Z,97829.42
2023-01-18T14:25:19.552Z,97829.39
2023-01-18T14:27:52.562Z,97831.27
2023-01-18T14:30:31.055Z,97830.12
2023-01-18T14:33:04.994Z,97833.21
2023-01-18T14:35:32.248Z,97832.08
2023-01-18T14:38:18.823Z,97835.06
2023-01-18T14:40:55.340Z,97834.77
2023-01-18T14:43:36.280Z,97834.98
2023-01-18T14:46:07.649Z,97834.48
2023-01-18T14:48:46.217Z,97838.45
2023-01-18T14:51:18.948Z,97836.86
2023-01-18T14:53:50.956Z,97838.48
2023-01-18T14:56:24.560Z,97840.73
2023-01-18T14:58:59.173Z,97842.45
2023-01-18T15:01:31.825Z,97846.83
2023-01-18T15:04:02.068Z,97848.67
2023-01-18T15:06:46.778Z,97850.37
2023-01-18T15:09:14.305Z,97853.95
2023-01-18T15:11:43.968Z,97855.58
2023-01-18T15:14:24.042Z,97863.49
2023-01-18T15:16:55.132Z,97866.09
2023-01-18T15:19:33.961Z,97869.20
2023-01-18T15:22:04.545Z,97869.02
2023-01-18T15:24:38.897Z,97874.74
2023-01-18T15:27:06.540Z,97874.79
2023-01-18T15:29:38.948Z,97882.15
2023-01-18T15:32:13.350Z,97880.51
2023-01-18T15:34:46.232Z,97888.63
2023-01-18T15:37:24.119Z,97891.13
2023-01-18T15:39:58.402Z,97892.62
2023-01-18T15:42:44.212Z,97896.06
2023-01-18T15:45:33.590Z,97899.48
2023-01-18T15:48:06.714Z,97899.52
2023-01-18T15:50:44.490Z,97902.45
2023-01-18T15:53:30.606Z,97900.48
2023-01-18T15:55:59.610Z,97905.05
2023-01-18T15:58:27.021Z,97904.09
2023-01-18T16:01:22.233Z,97912.04
2023-01-18T16:03:49.989Z,97911.57
2023-01-18T16:06:32.992Z,97917.09
2023-01-18T16:09:16.110Z,97914.71
2023-01-18T16:11:53.249Z,97912.98
2023-01-18T16:14:27.989Z,97918.16
2023-01-18T16:17:04.524Z,97920.23
2023-01-18T16:19:35.875Z,97923.99
2023-01-18T16:22:05.109Z,97925.02
2023-01-18T16:24:42.388Z,97930.10
2023-01-18T16:27:15.610Z,97932.00
2023-01-18T16:29:55.981Z,97936.13
2023-01-18T16:32:23.201Z,97937.95
2023-01-18T16:34:51.589Z,97939.69
2023-01-18T16:37:19.548Z,97942.92
2023-01-18T16:39:47.134Z,97946.58
2023-01-18T16:42:14.513Z,97946.95
2023-01-18T16:44:46.625Z,97950.33
2023-01-18T16:47:16.597Z,97953.45
2023-01-18T16:49:44.228Z,97960.94
2023-01-18T16:52:13.467Z,97963.09
2023-01-18T16:54:45.069Z,97966.28
2023-01-18T16:57:20.441Z,97970.63
2023-01-18T16:59:48.395Z,97973.33
2023-01-18T17:02:16.078Z,97979.25
2023-01-18T17:04:44.973Z,97982.69
2023-01-18T17:07:12.842Z,97985.06
2023-01-18T17:09:48.463Z,97989.82
2023-01-18T17:12:16.554Z,97998.22
2023-01-18T17:14:43.765Z,98005.39
2023-01-18T17:17:11.727Z,98008.38
2023-01-18T17:19:40.652Z,98013.06
2023-01-18T17:22:07.824Z,98018.60
2023-01-18T17:24:35.015Z,98025.08
2023-01-18T17:27:02.231Z,98027.52
2023-01-18T17:29:29.788Z,98035.75
2023-01-18T17:31:56.976Z,98040.84
2023-01-18T17:34:30.021Z,98044.23
2023-01-18T17:36:58.783Z,98051.38
2023-01-18T17:39:42.573Z,98052.58
2023-01-18T17:42:14.366Z,98061.79
2023-01-18T17:44:43.705Z,98067.12
2023-01-18T17:47:10.983Z,98075.20
2023-01-18T17:49:38.235Z,98075.23
2023-01-18T17:52:05.461Z,98079.27
2023-01-18T17:54:34.986Z,98085.74
2023-01-18T17:57:02.118Z,98090.53
2023-01-18T17:59:29.365Z,98094.17
2023-01-18T18:01:56.599Z,98101.65
2023-01-18T18:04:23.808Z,98102.63
2023-01-18T18:06:54.379Z,98107.75
2023-01-18T18:09:21.883Z,98112.03
2023-01-18T18:11:49.009Z,98118.89
2023-01-18T18:14:17.693Z,98121.92
2023-01-18T18:16:45.195Z,98123.73
2023-01-18T18:19:15.193Z,98128.52
2023-01-18T18:21:43.325Z,98137.48
2023-01-18T18:24:10.521Z,98142.27
2023-01-18T18:26:37.794Z,98152.91
2023-01-18T18:29:04.962Z,98159.86
2023-01-18T18:31:32.155Z,98172.96
2023-01-18T18:33:59.377Z,98183.42
2023-01-18T18:36:27.616Z,98190.91
2023-01-18T18:38:54.940Z,98201.06
2023-01-18T18:41:22.189Z,98204.48
2023-01-18T18:43:49.521Z,98209.55
2023-01-18T18:46:16.871Z,98207.50
2023-01-18T18:48:44.178Z,98211.38
2023-01-18T18:51:11.378Z,98216.31
2023-01-18T18:53:39.240Z,98220.63
2023-01-18T18:56:10.352Z,98222.45
2023-01-18T18:58:39.319Z,98229.33
2023-01-18T19:01:07.772Z,98235.62
2023-01-18T19:03:35.504Z,98238.88
2023-01-18T19:06:02.633Z,98242.50
2023-01-18T19:08:29.806Z,98246.38
2023-01-18T19:10:57.340Z,98242.55
2023-01-18T19:13:24.469Z,98248.17
2023-01-18T19:15:51.774Z,98245.52
2023-01-18T19:18:19.004Z,98249.84
2023-01-18T19:20:46.530Z,98256.19
2023-01-18T19:23:13.755Z,98266.06
2023-01-18T19:25:40.999Z,98272.39
2023-01-18T19:28:08.339Z,98285.45
2023-01-18T19:30:35.568Z,98287.55
2023-01-18T19:33:03.529Z,98294.44
2023-01-18T19:35:31.355Z,98298.46
2023-01-18T19:38:00.995Z,98298.85
2023-01-18T19:40:28.317Z,98301.70
2023-01-18T19:42:56.161Z,98307.65
2023-01-18T19:45:28.269Z,98313.35
2023-01-18T19:47:58.419Z,98316.45
2023-01-18T19:50:27.390Z,98321.54
2023-01-18T19:52:54.886Z,98325.02
2023-01-18T19:55:22.927Z,98330.57
2023-01-18T19:57:51.148Z,98335.16
2023-01-18T20:00:18.864Z,98339.08
2023-01-18T20:02:46.252Z,98347.52
2023-01-18T20:05:13.543Z,98352.92
2023-01-18T20:07:40.976Z,98356.81
2023-01-18T20:10:09.530Z,98357.35
2023-01-18T20:12:37.179Z,98366.26
2023-01-18T20:15:06.275Z,98372.91
2023-01-18T20:17:33.510Z,98381.41
2023-01-18T20:20:00.702Z,98382.88
2023-01-18T20:22:27.773Z,98398.54
2023-01-18T20:24:55.176Z,98409.39
2023-01-18T20:27:22.294Z,98416.02
2023-01-18T20:29:49.712Z,98418.85
2023-01-18T20:32:17.918Z,98418.52
2023-01-18T20:34:47.450Z,98422.89
2023-01-18T20:37:15.742Z,98426.88
2023-01-18T20:39:43.017Z,98429.67
2023-01-18T20:42:10.188Z,98431.27
2023-01-18T20:44:37.504Z,98441.48
2023-01-18T20:47:05.110Z,98447.98
2023-01-18T20:49:38.063Z,98453.81
2023-01-18T20:52:07.240Z,98457.52
2023-01-18T20:54:36.447Z,98458.67
2023-01-18T20:57:06.231Z,98469.52
2023-01-18T20:59:33.695Z,98476.12
2023-01-18T21:02:02.075Z,98474.46
2023-01-18T21:04:29.451Z,98476.29
2023-01-18T21:06:57.445Z,98482.61
2023-01-18T21:09:25.233Z,98490.08
2023-01-18T21:11:52.529Z,98498.55
2023-01-18T21:14:19.686Z,98507.59
2023-01-18T21:16:47.117Z,98511.20
2023-01-18T21:19:14.462Z,98509.69
2023-01-18T21:21:41.719Z,98508.66
2023-01-18T21:24:08.941Z,98509.64
2023-01-18T21:26:37.891Z,98506.20
2023-01-18T21:29:06.115Z,98506.67
2023-01-18T21:31:33.327Z,98517.11
2023-01-18T21:34:00.531Z,98524.54
2023-01-18T21:36:27.679Z,98529.73
2023-01-18T21:38:55.263Z,98535.71
2023-01-18T21:41:40.926Z,98543.41
2023-01-18T21:44:28.796Z,98550.38
2023-01-18T21:46:56.274Z,98564.52
2023-01-18T21:50:11.353Z,98575.23
2023-01-18T21:52:48.924Z,98583.23
2023-01-18T21:55:17.245Z,98578.00
2023-01-18T21:57:44.609Z,98583.95
2023-01-18T22:00:12.470Z,98590.36
2023-01-18T22:02:39.728Z,98596.64
2023-01-18T22:05:08.773Z,98600.02
2023-01-18T22:07:36.157Z,98609.90
2023-01-18T22:10:06.541Z,98626.39
2023-01-18T22:12:36.067Z,98635.09
2023-01-18T22:15:06.927Z,98641.04
2023-01-18T22:17:34.168Z,98640.77
2023-01-18T22:20:02.141Z,98639.89
2023-01-18T22:22:29.533Z,98644.05
2023-01-18T22:24:57.232Z,98651.55
2023-01-18T22:27:24.430Z,98659.64
2023-01-18T22:29:51.854Z,98665.71
2023-01-18T22:32:19.088Z,98671.98
2023-01-18T22:34:46.295Z,98673.75
2023-01-18T22:37:13.552Z,98669.29
2023-01-18T22:39:40.653Z,98660.96
2023-01-18T22:42:07.799Z,98657.26
2023-01-18T22:44:34.910Z,98651.22
2023-01-18T22:47:02.062Z,98660.85
2023-01-18T22:49:29.223Z,98664.05
2023-01-18T22:51:56.338Z,98660.06
2023-01-18T22:54:23.910Z,98657.76
2023-01-18T22:56:51.109Z,98652.05
2023-01-18T22:59:18.285Z,98652.46
2023-01-18T23:01:45.492Z,98647.75
2023-01-18T23:04:12.667Z,98654.73
2023-01-18T23:06:46.825Z,98661.69
2023-01-18T23:09:16.008Z,98671.86
2023-01-18T23:11:43.103Z,98678.02
2023-01-18T23:14:29.377Z,98685.17
2023-01-18T23:17:14.888Z,98696.29
2023-01-18T23:19:42.077Z,98704.06
2023-01-18T23:22:09.328Z,98708.32
2023-01-18T23:24:37.439Z,98711.89
2023-01-18T23:27:07.118Z,98713.70
2023-01-18T23:29:34.289Z,98720.98
2023-01-18T23:32:01.524Z,98728.89
2023-01-18T23:34:28.707Z,98732.27
2023-01-18T23:36:55.903Z,98733.31
2023-01-18T23:39:42.075Z,98740.08
2023-01-18T23:42:27.631Z,98749.64
2023-01-18T23:45:13.427Z,98768.26
2023-01-18T23:47:59.681Z,98784.48
2023-01-18T23:50:45.692Z,98790.23
2023-01-18T23:53:32.324Z,98785.10
2023-01-18T23:56:00.036Z,98778.92
2023-01-18T23:58:27.319Z,98777.72
